Time;durP1;ratioP1;P1;durP2;ratioP2;P2;SDS_P1;SDS_P2;PMS_P1;PMS_P2;Temp;Humidity;BMP_temperature;BMP_pressure;BME280_temperature;BME280_humidity;BME280_pressure;Samples;Min_cycle;Max_cycle;Signal;HPM_P1;HPM_P2
2022/04/30 00:00:29;;;;;;;7.83;7.10;;;;;;;;;;5088586;28;20211;-74
2022/04/30 00:02:57;;;;;;;9.17;7.33;;;;;;;;;;5085652;28;20245;-74
2022/04/30 00:05:23;;;;;;;11.80;5.83;;;;;;;;;;5086295;28;20184;-74
2022/04/30 00:07:48;;;;;;;9.70;8.33;;;;;;;;;;5082164;28;20176;-75
2022/04/30 00:10:14;;;;;;;10.63;9.63;;;;;;;;;;5084001;28;20187;-74
2022/04/30 00:12:39;;;;;;;10.83;8.90;;;;;;;;;;5093561;28;20207;-75
2022/04/30 00:15:05;;;;;;;10.53;9.20;;;;;;;;;;5083758;28;20244;-74
2022/04/30 00:17:30;;;;;;;11.47;9.73;;;;;;;;;;5080769;28;20188;-75
2022/04/30 00:19:55;;;;;;;10.97;9.87;;;;;;;;;;5087505;28;20202;-75
2022/04/30 00:22:20;;;;;;;12.67;9.40;;;;;;;;;;5085319;28;20232;-75
2022/04/30 00:24:46;;;;;;;15.00;10.17;;;;;;;;;;5090913;28;20175;-74
2022/04/30 00:27:11;;;;;;;13.77;11.80;;;;;;;;;;5078663;28;20246;-75
2022/04/30 00:29:36;;;;;;;12.27;10.83;;;;;;;;;;5081229;28;20204;-75
2022/04/30 00:32:03;;;;;;;16.40;11.83;;;;;;;;;;5080496;28;20194;-74
2022/04/30 00:34:28;;;;;;;16.20;11.70;;;;;;;;;;5076775;28;20233;-75
2022/04/30 00:36:53;;;;;;;19.70;12.47;;;;;;;;;;5077930;28;20217;-74
2022/04/30 00:39:18;;;;;;;16.60;12.23;;;;;;;;;;5085173;28;20483;-74
2022/04/30 00:41:44;;;;;;;16.80;13.20;;;;;;;;;;5080727;28;20178;-75
2022/04/30 00:44:10;;;;;;;15.77;12.33;;;;;;;;;;5088553;28;20179;-74
2022/04/30 00:46:35;;;;;;;18.80;12.67;;;;;;;;;;5083503;28;20241;-74
2022/04/30 00:49:01;;;;;;;18.00;12.30;;;;;;;;;;5086614;28;20182;-74
2022/04/30 00:51:27;;;;;;;16.13;12.60;;;;;;;;;;5088041;28;20175;-74
2022/04/30 00:53:53;;;;;;;16.97;12.73;;;;;;;;;;5086772;28;20269;-75
2022/04/30 00:56:43;;;;;;;16.00;12.67;;;;;;;;;;5077946;28;20186;-75
2022/04/30 00:59:10;;;;;;;19.43;14.67;;;;;;;;;;5070972;28;20206;-74
2022/04/30 01:01:36;;;;;;;17.40;12.87;;;;;;;;;;5083514;28;20184;-74
2022/04/30 01:04:01;;;;;;;20.60;14.03;;;;;;;;;;5076439;28;20175;-75
2022/04/30 01:06:48;;;;;;;17.30;12.20;;;;;;;;;;5081545;28;20174;-74
2022/04/30 01:09:14;;;;;;;19.13;12.10;;;;;;;;;;5081807;28;20190;-75
2022/04/30 01:11:40;;;;;;;15.53;12.80;;;;;;;;;;5077482;28;20178;-74
2022/04/30 01:14:07;;;;;;;16.57;12.87;;;;;;;;;;5090585;28;20234;-75
2022/04/30 01:16:33;;;;;;;19.80;12.77;;;;;;;;;;5078605;28;20185;-75
2022/04/30 01:18:59;;;;;;;16.80;12.33;;;;;;;;;;5076773;28;20206;-74
2022/04/30 01:21:25;;;;;;;16.40;11.00;;;;;;;;;;5079807;28;20217;-75
2022/04/30 01:23:51;;;;;;;13.17;11.73;;;;;;;;;;5078829;28;20219;-74
2022/04/30 01:26:20;;;;;;;12.00;7.93;;;;;;;;;;5073908;28;20186;-74
2022/04/30 01:28:46;;;;;;;15.90;12.50;;;;;;;;;;5082176;28;20233;-74
2022/04/30 01:39:29;;;;;;;16.57;11.60;;;;;;;;;;5088112;28;20335;-74
2022/04/30 01:41:55;;;;;;;14.70;10.80;;;;;;;;;;5080692;28;20216;-75
2022/04/30 01:44:20;;;;;;;13.80;10.53;;;;;;;;;;5077020;28;20288;-75
2022/04/30 01:46:46;;;;;;;11.83;9.73;;;;;;;;;;5087311;28;20189;-75
2022/04/30 01:49:15;;;;;;;9.93;6.90;;;;;;;;;;5086907;28;20192;-75
2022/04/30 01:51:46;;;;;;;14.83;9.33;;;;;;;;;;5079716;28;20190;-74
2022/04/30 01:54:13;;;;;;;13.67;9.47;;;;;;;;;;5080251;28;20198;-74
2022/04/30 01:56:38;;;;;;;10.80;9.30;;;;;;;;;;5085826;28;20185;-73
2022/04/30 01:59:03;;;;;;;10.90;9.27;;;;;;;;;;5081419;28;20186;-75
2022/04/30 02:01:28;;;;;;;10.77;9.67;;;;;;;;;;5080633;28;20182;-75
2022/04/30 02:03:55;;;;;;;10.77;8.73;;;;;;;;;;5080347;28;20185;-75
2022/04/30 02:06:21;;;;;;;10.50;9.07;;;;;;;;;;5084926;28;20183;-75
2022/04/30 02:08:46;;;;;;;13.83;9.20;;;;;;;;;;5070463;28;20232;-74
2022/04/30 02:11:11;;;;;;;13.30;10.10;;;;;;;;;;5086275;28;20173;-74
2022/04/30 02:13:38;;;;;;;12.57;10.00;;;;;;;;;;5081466;28;20182;-74
2022/04/30 02:16:04;;;;;;;13.03;10.77;;;;;;;;;;5089250;28;20176;-74
2022/04/30 02:18:30;;;;;;;11.43;8.23;;;;;;;;;;5081088;28;20189;-75
2022/04/30 02:20:56;;;;;;;13.07;9.40;;;;;;;;;;5084789;28;20288;-74
2022/04/30 02:23:22;;;;;;;11.97;10.73;;;;;;;;;;5075520;28;20273;-74
2022/04/30 02:25:48;;;;;;;12.40;9.53;;;;;;;;;;5072366;28;20195;-75
2022/04/30 02:28:14;;;;;;;16.30;11.57;;;;;;;;;;5084626;28;20227;-74
2022/04/30 02:30:39;;;;;;;15.40;11.37;;;;;;;;;;5085648;28;20201;-74
2022/04/30 02:33:08;;;;;;;14.53;11.13;;;;;;;;;;5082474;28;20178;-75
2022/04/30 02:35:35;;;;;;;17.43;12.00;;;;;;;;;;5069704;28;20182;-75
2022/04/30 02:38:01;;;;;;;14.40;11.83;;;;;;;;;;5082801;28;20177;-74
2022/04/30 02:40:27;;;;;;;17.80;13.47;;;;;;;;;;5077927;28;20212;-74
2022/04/30 02:42:52;;;;;;;15.70;12.20;;;;;;;;;;5087362;28;20205;-75
2022/04/30 02:45:18;;;;;;;20.03;14.07;;;;;;;;;;5083106;28;20213;-75
2022/04/30 02:47:45;;;;;;;20.60;12.30;;;;;;;;;;5079831;28;20196;-75
2022/04/30 02:50:12;;;;;;;15.43;11.87;;;;;;;;;;5082932;28;20187;-74
2022/04/30 02:52:37;;;;;;;17.93;12.53;;;;;;;;;;5087560;28;20226;-75
2022/04/30 02:55:03;;;;;;;12.07;9.63;;;;;;;;;;5085727;28;20174;-75
2022/04/30 03:00:25;;;;;;;23.63;15.67;;;;;;;;;;5077686;28;20219;-75
2022/04/30 03:02:51;;;;;;;22.37;16.23;;;;;;;;;;5082151;28;20185;-75
2022/04/30 03:05:18;;;;;;;19.57;15.93;;;;;;;;;;5078702;28;20269;-75
2022/04/30 03:07:45;;;;;;;30.03;18.67;;;;;;;;;;5082422;28;20188;-75
2022/04/30 03:10:10;;;;;;;24.53;17.93;;;;;;;;;;5083610;28;20174;-74
2022/04/30 03:12:36;;;;;;;23.47;16.43;;;;;;;;;;5084348;28;20185;-75
2022/04/30 03:15:01;;;;;;;25.40;18.47;;;;;;;;;;5081447;28;20173;-74
2022/04/30 03:22:54;;;;;;;21.67;16.83;;;;;;;;;;5076794;28;20208;-75
2022/04/30 03:25:19;;;;;;;17.77;10.67;;;;;;;;;;5076332;28;20209;-74
2022/04/30 03:27:45;;;;;;;22.27;18.20;;;;;;;;;;5079332;28;20255;-75
2022/04/30 03:30:11;;;;;;;19.10;12.03;;;;;;;;;;5080027;28;20185;-75
2022/04/30 03:32:36;;;;;;;23.20;15.83;;;;;;;;;;5085724;28;20173;-75
2022/04/30 03:35:03;;;;;;;20.60;14.73;;;;;;;;;;5083635;28;20195;-74
2022/04/30 03:37:28;;;;;;;21.70;16.67;;;;;;;;;;5077082;28;20185;-74
2022/04/30 03:39:54;;;;;;;22.40;15.90;;;;;;;;;;5084072;28;20246;-74
2022/04/30 03:42:19;;;;;;;14.90;11.13;;;;;;;;;;5082085;28;20185;-74
2022/04/30 03:44:44;;;;;;;22.90;17.97;;;;;;;;;;5084489;28;20180;-75
2022/04/30 03:47:09;;;;;;;19.93;15.13;;;;;;;;;;5079103;28;20189;-74
2022/04/30 03:49:34;;;;;;;19.23;15.03;;;;;;;;;;5079365;28;20173;-74
2022/04/30 03:51:59;;;;;;;18.77;13.20;;;;;;;;;;5082337;28;20184;-74
2022/04/30 03:54:25;;;;;;;21.97;17.60;;;;;;;;;;5076992;28;20185;-75
2022/04/30 03:56:50;;;;;;;21.60;16.50;;;;;;;;;;5078882;28;20220;-74
2022/04/30 03:59:15;;;;;;;24.83;18.30;;;;;;;;;;5087696;28;20510;-75
2022/04/30 04:01:40;;;;;;;19.63;15.20;;;;;;;;;;5081443;28;20178;-74
2022/04/30 04:04:06;;;;;;;22.47;16.20;;;;;;;;;;5079903;28;20263;-75
2022/04/30 04:06:31;;;;;;;24.33;17.93;;;;;;;;;;5090552;28;20237;-74
2022/04/30 04:08:58;;;;;;;26.10;18.83;;;;;;;;;;5078377;28;20174;-75
2022/04/30 04:11:26;;;;;;;24.70;19.20;;;;;;;;;;5087056;28;20181;-74
2022/04/30 04:19:21;;;;;;;24.73;18.20;;;;;;;;;;5082438;28;20255;-75
2022/04/30 04:21:46;;;;;;;26.03;18.87;;;;;;;;;;5086138;28;20269;-75
2022/04/30 04:26:55;;;;;;;23.50;18.43;;;;;;;;;;5079285;28;20197;-74
2022/04/30 04:29:20;;;;;;;24.87;17.60;;;;;;;;;;5081441;28;20185;-74
2022/04/30 04:31:45;;;;;;;19.10;14.50;;;;;;;;;;5080708;28;20197;-74
2022/04/30 04:34:11;;;;;;;20.10;16.30;;;;;;;;;;5077808;28;20181;-74
2022/04/30 04:36:36;;;;;;;16.07;11.80;;;;;;;;;;5084341;28;20229;-75
2022/04/30 04:39:08;;;;;;;22.50;13.77;;;;;;;;;;5084959;28;20213;-75
2022/04/30 04:41:33;;;;;;;16.80;13.30;;;;;;;;;;5080849;28;20275;-75
2022/04/30 04:43:58;;;;;;;16.10;13.47;;;;;;;;;;5086487;28;20269;-74
2022/04/30 04:46:23;;;;;;;20.80;15.43;;;;;;;;;;5083994;28;20189;-75
2022/04/30 04:48:49;;;;;;;22.30;17.37;;;;;;;;;;5085677;28;20173;-74
2022/04/30 04:51:14;;;;;;;18.73;14.67;;;;;;;;;;5087806;28;20216;-74
2022/04/30 04:53:39;;;;;;;19.77;13.87;;;;;;;;;;5097717;28;20291;-74
2022/04/30 04:56:06;;;;;;;19.30;13.60;;;;;;;;;;5081296;28;20271;-75
2022/04/30 04:58:33;;;;;;;18.53;14.73;;;;;;;;;;5077144;28;20212;-76
2022/04/30 05:00:59;;;;;;;15.60;13.00;;;;;;;;;;5089035;28;20213;-75
2022/04/30 05:03:24;;;;;;;21.50;14.93;;;;;;;;;;5090479;28;20181;-74
2022/04/30 05:05:50;;;;;;;13.90;10.40;;;;;;;;;;5079926;28;20173;-74
2022/04/30 05:08:15;;;;;;;16.67;14.17;;;;;;;;;;5091725;28;20320;-75
2022/04/30 05:10:40;;;;;;;15.47;13.63;;;;;;;;;;5088822;28;20291;-75
2022/04/30 05:13:05;;;;;;;15.53;12.47;;;;;;;;;;5081344;28;20186;-75
2022/04/30 05:15:30;;;;;;;17.23;15.03;;;;;;;;;;5090131;28;20169;-74
2022/04/30 05:17:55;;;;;;;19.17;13.67;;;;;;;;;;5084472;28;20191;-75
2022/04/30 05:20:21;;;;;;;12.87;10.33;;;;;;;;;;5080259;28;20296;-75
2022/04/30 05:22:47;;;;;;;16.47;14.67;;;;;;;;;;5089186;28;20236;-76
2022/04/30 05:25:13;;;;;;;18.80;15.43;;;;;;;;;;5079762;28;20184;-74
2022/04/30 05:27:38;;;;;;;18.73;13.60;;;;;;;;;;5078705;28;20217;-75
2022/04/30 05:30:04;;;;;;;15.87;13.57;;;;;;;;;;5082727;28;20196;-75
2022/04/30 05:32:29;;;;;;;16.50;13.70;;;;;;;;;;5085110;28;20188;-75
2022/04/30 05:34:54;;;;;;;18.73;14.00;;;;;;;;;;5087896;28;20185;-75
2022/04/30 05:37:19;;;;;;;20.37;14.03;;;;;;;;;;5080532;28;20188;-75
2022/04/30 05:39:44;;;;;;;18.47;13.97;;;;;;;;;;5085691;28;20285;-74
2022/04/30 05:42:10;;;;;;;16.53;13.90;;;;;;;;;;5076574;28;20177;-75
2022/04/30 05:44:35;;;;;;;16.53;13.00;;;;;;;;;;5087511;28;20266;-75
2022/04/30 05:47:00;;;;;;;19.23;16.33;;;;;;;;;;5078602;28;20211;-75
2022/04/30 05:49:26;;;;;;;16.93;12.53;;;;;;;;;;5084247;28;20174;-74
2022/04/30 05:51:51;;;;;;;19.43;15.67;;;;;;;;;;5078031;28;20258;-75
2022/04/30 05:54:16;;;;;;;17.57;12.87;;;;;;;;;;5084386;28;20173;-74
2022/04/30 05:56:41;;;;;;;17.07;13.23;;;;;;;;;;5076252;28;20197;-76
2022/04/30 05:59:07;;;;;;;16.23;12.77;;;;;;;;;;5087312;28;20279;-74
2022/04/30 06:01:32;;;;;;;16.37;13.47;;;;;;;;;;5078412;28;20227;-75
2022/04/30 06:03:57;;;;;;;17.90;12.40;;;;;;;;;;5088550;28;20286;-75
2022/04/30 06:06:23;;;;;;;15.70;12.70;;;;;;;;;;5084301;28;20181;-74
2022/04/30 06:08:48;;;;;;;15.50;13.03;;;;;;;;;;5081226;28;20168;-76
2022/04/30 06:11:13;;;;;;;15.17;12.33;;;;;;;;;;5084206;28;20197;-74
2022/04/30 06:13:38;;;;;;;15.10;11.97;;;;;;;;;;5091777;28;20184;-75
2022/04/30 06:16:04;;;;;;;16.97;13.37;;;;;;;;;;5079392;28;20445;-75
2022/04/30 06:18:29;;;;;;;15.10;11.83;;;;;;;;;;5082159;28;20173;-74
2022/04/30 06:20:54;;;;;;;14.30;11.80;;;;;;;;;;5078160;28;20193;-75
2022/04/30 06:23:19;;;;;;;16.87;11.73;;;;;;;;;;5079001;28;20225;-75
2022/04/30 06:25:45;;;;;;;13.40;12.00;;;;;;;;;;5081144;28;20269;-75
2022/04/30 06:28:12;;;;;;;13.70;12.10;;;;;;;;;;5080029;28;20220;-74
2022/04/30 06:30:37;;;;;;;14.73;12.03;;;;;;;;;;5086757;28;20181;-75
2022/04/30 06:33:02;;;;;;;16.43;12.90;;;;;;;;;;5083625;28;20184;-75
2022/04/30 06:35:27;;;;;;;13.33;11.63;;;;;;;;;;5082858;28;20330;-75
2022/04/30 06:37:53;;;;;;;17.03;13.97;;;;;;;;;;5076791;28;20273;-75
2022/04/30 06:40:20;;;;;;;17.43;13.10;;;;;;;;;;5079689;28;20201;-76
2022/04/30 06:42:45;;;;;;;14.13;11.97;;;;;;;;;;5085918;28;20210;-74
2022/04/30 06:45:11;;;;;;;16.23;12.23;;;;;;;;;;5083578;28;20254;-75
2022/04/30 06:47:37;;;;;;;15.50;13.40;;;;;;;;;;5082704;28;20176;-75
2022/04/30 06:50:03;;;;;;;15.77;13.10;;;;;;;;;;5087061;28;20177;-76
2022/04/30 06:52:28;;;;;;;15.60;13.70;;;;;;;;;;5080950;28;20275;-75
2022/04/30 06:57:37;;;;;;;14.60;12.33;;;;;;;;;;5084284;28;20237;-75
2022/04/30 07:01:25;;;;;;;13.07;11.73;;;;;;;;;;5083723;28;20204;-75
2022/04/30 07:02:48;;;;;;;16.03;13.07;;;;;;;;;;5082830;28;20185;-75
2022/04/30 07:05:13;;;;;;;15.30;11.90;;;;;;;;;;5082301;28;20252;-75
2022/04/30 07:07:38;;;;;;;16.70;12.50;;;;;;;;;;5082839;28;20169;-75
2022/04/30 07:10:04;;;;;;;15.40;11.73;;;;;;;;;;5085430;28;20176;-76
2022/04/30 07:12:29;;;;;;;14.37;11.33;;;;;;;;;;5083599;28;20287;-75
2022/04/30 07:14:55;;;;;;;12.87;10.60;;;;;;;;;;5083008;28;20176;-74
2022/04/30 07:17:20;;;;;;;14.80;13.27;;;;;;;;;;5084890;28;20301;-76
2022/04/30 07:19:45;;;;;;;13.50;11.93;;;;;;;;;;5086071;28;20211;-76
2022/04/30 07:22:10;;;;;;;14.60;12.87;;;;;;;;;;5084415;28;20183;-76
2022/04/30 07:24:36;;;;;;;16.20;12.33;;;;;;;;;;5082765;28;20177;-75
2022/04/30 07:27:04;;;;;;;14.03;11.33;;;;;;;;;;5079502;28;20174;-76
2022/04/30 07:29:30;;;;;;;14.70;12.67;;;;;;;;;;5089585;28;20226;-77
2022/04/30 07:31:55;;;;;;;13.37;11.43;;;;;;;;;;5079573;28;20323;-77
2022/04/30 07:34:22;;;;;;;14.97;13.37;;;;;;;;;;5085764;28;20170;-77
2022/04/30 07:36:48;;;;;;;15.37;13.57;;;;;;;;;;5091512;28;20177;-77
2022/04/30 07:39:13;;;;;;;14.00;12.00;;;;;;;;;;5084134;28;20243;-77
2022/04/30 07:41:38;;;;;;;14.07;11.30;;;;;;;;;;5088652;28;20197;-77
2022/04/30 07:44:03;;;;;;;12.70;11.03;;;;;;;;;;5097496;28;20180;-77
2022/04/30 07:46:29;;;;;;;13.23;11.27;;;;;;;;;;5078364;28;20219;-77
2022/04/30 07:48:54;;;;;;;15.50;12.07;;;;;;;;;;5089639;28;20167;-77
2022/04/30 07:51:33;;;;;;;13.70;11.30;;;;;;;;;;5084018;28;20272;-77
2022/04/30 07:53:59;;;;;;;13.40;12.00;;;;;;;;;;5082634;28;20307;-77
2022/04/30 07:56:24;;;;;;;11.37;10.20;;;;;;;;;;5079580;28;20193;-77
2022/04/30 07:58:50;;;;;;;13.27;11.37;;;;;;;;;;5079819;28;20171;-77
2022/04/30 08:01:15;;;;;;;13.03;11.10;;;;;;;;;;5080481;28;20210;-77
2022/04/30 08:03:41;;;;;;;14.57;11.27;;;;;;;;;;5082035;28;20257;-77
2022/04/30 08:06:06;;;;;;;10.80;9.57;;;;;;;;;;5080806;28;20186;-77
2022/04/30 08:08:31;;;;;;;11.23;10.00;;;;;;;;;;5088412;28;20222;-77
2022/04/30 08:10:56;;;;;;;11.77;10.30;;;;;;;;;;5082974;28;20180;-77
2022/04/30 08:13:22;;;;;;;12.77;10.53;;;;;;;;;;5086509;28;20182;-77
2022/04/30 08:15:47;;;;;;;13.13;9.97;;;;;;;;;;5084354;28;20189;-77
2022/04/30 08:18:12;;;;;;;10.73;9.63;;;;;;;;;;5086553;28;20198;-77
2022/04/30 08:20:38;;;;;;;10.00;9.00;;;;;;;;;;5085489;28;20249;-77
2022/04/30 08:23:04;;;;;;;9.40;8.40;;;;;;;;;;5084105;28;20193;-77
2022/04/30 08:25:29;;;;;;;14.30;9.17;;;;;;;;;;5079803;28;20248;-77
2022/04/30 08:27:54;;;;;;;13.53;9.27;;;;;;;;;;5086533;28;20250;-77
2022/04/30 08:30:19;;;;;;;9.67;8.67;;;;;;;;;;5080684;28;20735;-77
2022/04/30 08:32:47;;;;;;;10.23;8.90;;;;;;;;;;5086387;28;20182;-77
2022/04/30 08:35:12;;;;;;;10.03;8.63;;;;;;;;;;5079269;28;20326;-77
2022/04/30 08:37:37;;;;;;;12.17;10.60;;;;;;;;;;5082386;28;20262;-77
2022/04/30 08:40:03;;;;;;;10.53;9.33;;;;;;;;;;5081309;28;20202;-77
2022/04/30 08:42:30;;;;;;;10.30;9.30;;;;;;;;;;5082765;28;20174;-77
2022/04/30 08:44:56;;;;;;;10.10;9.10;;;;;;;;;;5086146;28;20191;-77
2022/04/30 08:47:21;;;;;;;10.33;8.50;;;;;;;;;;5085033;28;21524;-77
2022/04/30 08:49:47;;;;;;;10.93;9.83;;;;;;;;;;5087701;28;20177;-77
2022/04/30 08:52:15;;;;;;;11.57;9.53;;;;;;;;;;5088803;28;20184;-77
2022/04/30 08:54:40;;;;;;;9.23;8.33;;;;;;;;;;5089812;28;20176;-77
2022/04/30 08:57:05;;;;;;;10.67;9.67;;;;;;;;;;5081551;28;20265;-77
2022/04/30 08:59:30;;;;;;;8.63;7.83;;;;;;;;;;5085112;28;20276;-77
2022/04/30 09:01:58;;;;;;;11.17;9.03;;;;;;;;;;5081326;28;20203;-77
2022/04/30 09:04:23;;;;;;;9.87;8.13;;;;;;;;;;5078306;28;20180;-77
2022/04/30 09:06:49;;;;;;;9.40;8.40;;;;;;;;;;5086476;28;20169;-77
2022/04/30 09:09:23;;;;;;;10.83;9.77;;;;;;;;;;5080010;28;20268;-77
2022/04/30 09:11:48;;;;;;;9.83;8.93;;;;;;;;;;5080494;28;20180;-77
2022/04/30 09:14:13;;;;;;;10.37;8.53;;;;;;;;;;5081574;28;20179;-77
2022/04/30 09:16:38;;;;;;;12.53;7.67;;;;;;;;;;5084361;28;20223;-78
2022/04/30 09:19:04;;;;;;;10.23;8.53;;;;;;;;;;5085193;28;20194;-77
2022/04/30 09:21:29;;;;;;;9.10;8.13;;;;;;;;;;5085241;28;20234;-78
2022/04/30 09:24:04;;;;;;;9.47;8.43;;;;;;;;;;5079142;28;20187;-78
2022/04/30 09:26:39;;;;;;;8.73;7.77;;;;;;;;;;5081157;28;20186;-77
2022/04/30 09:29:18;;;;;;;8.80;7.90;;;;;;;;;;5089174;28;20221;-78
2022/04/30 09:31:47;;;;;;;9.43;8.43;;;;;;;;;;5087753;28;20256;-78
2022/04/30 09:37:41;;;;;;;9.77;8.77;;;;;;;;;;5081317;28;20178;-78
2022/04/30 09:39:41;;;;;;;9.30;8.30;;;;;;;;;;5079329;28;20224;-77
2022/04/30 09:42:07;;;;;;;8.63;7.50;;;;;;;;;;5082291;28;20183;-78
2022/04/30 09:44:35;;;;;;;8.50;7.70;;;;;;;;;;5081062;28;20177;-78
2022/04/30 09:47:01;;;;;;;8.93;6.83;;;;;;;;;;5083231;28;20182;-78
2022/04/30 09:54:54;;;;;;;8.90;6.83;;;;;;;;;;5079342;28;20194;-78
2022/04/30 09:57:22;;;;;;;9.53;7.93;;;;;;;;;;5079284;28;20580;-77
2022/04/30 09:59:50;;;;;;;9.33;8.00;;;;;;;;;;5081212;28;20197;-78
2022/04/30 10:02:16;;;;;;;8.27;7.47;;;;;;;;;;5072640;28;20189;-78
2022/04/30 10:04:43;;;;;;;9.53;8.33;;;;;;;;;;5086210;28;20177;-77
2022/04/30 10:07:08;;;;;;;10.40;9.33;;;;;;;;;;5077581;28;20170;-78
2022/04/30 10:09:39;;;;;;;16.43;6.60;;;;;;;;;;5073081;28;20423;-78
2022/04/30 10:12:26;;;;;;;20.33;7.57;;;;;;;;;;5080732;28;20209;-78
2022/04/30 10:14:58;;;;;;;28.73;6.23;;;;;;;;;;5080828;28;20262;-78
2022/04/30 10:17:25;;;;;;;24.40;6.37;;;;;;;;;;5084900;28;20182;-78
2022/04/30 10:20:07;;;;;;;23.80;7.37;;;;;;;;;;5080564;28;20221;-78
2022/04/30 10:22:33;;;;;;;53.83;8.30;;;;;;;;;;5077563;28;20182;-83
2022/04/30 10:24:59;;;;;;;15.00;6.70;;;;;;;;;;5080168;28;20184;-74
2022/04/30 10:27:24;;;;;;;15.07;6.43;;;;;;;;;;5077819;28;20292;-74
2022/04/30 10:29:57;;;;;;;24.93;7.47;;;;;;;;;;5080371;28;20178;-74
2022/04/30 10:32:26;;;;;;;17.83;7.50;;;;;;;;;;5085120;28;20176;-74
2022/04/30 10:34:52;;;;;;;9.83;7.90;;;;;;;;;;5091495;28;20250;-74
2022/04/30 10:37:34;;;;;;;10.73;8.57;;;;;;;;;;5082595;28;20181;-74
2022/04/30 10:40:00;;;;;;;10.93;9.67;;;;;;;;;;5082344;28;20291;-74
2022/04/30 10:42:32;;;;;;;10.07;8.10;;;;;;;;;;5078176;28;20190;-74
2022/04/30 10:44:58;;;;;;;9.57;8.57;;;;;;;;;;5078229;28;20177;-74
2022/04/30 10:47:23;;;;;;;16.27;13.53;;;;;;;;;;5083733;28;20181;-74
2022/04/30 10:49:49;;;;;;;11.53;10.00;;;;;;;;;;5088867;28;20178;-74
2022/04/30 10:52:21;;;;;;;12.80;11.43;;;;;;;;;;5084460;28;20174;-74
2022/04/30 10:54:47;;;;;;;9.57;8.63;;;;;;;;;;5087212;28;20165;-74
2022/04/30 10:57:13;;;;;;;8.93;8.03;;;;;;;;;;5080926;28;20262;-74
2022/04/30 10:59:39;;;;;;;9.70;8.70;;;;;;;;;;5079928;28;20184;-74
2022/04/30 11:02:04;;;;;;;10.30;8.63;;;;;;;;;;5086638;28;20240;-74
2022/04/30 11:04:30;;;;;;;8.60;7.70;;;;;;;;;;5079498;28;20187;-75
2022/04/30 11:06:56;;;;;;;10.90;9.50;;;;;;;;;;5081866;28;20186;-74
2022/04/30 11:09:23;;;;;;;10.50;9.40;;;;;;;;;;5086126;28;20199;-74
2022/04/30 11:11:49;;;;;;;11.20;10.07;;;;;;;;;;5086626;28;20212;-74
2022/04/30 11:14:16;;;;;;;9.80;8.10;;;;;;;;;;5087056;28;20268;-74
2022/04/30 11:16:42;;;;;;;10.90;9.80;;;;;;;;;;5090120;28;20216;-74
2022/04/30 11:19:13;;;;;;;11.40;10.00;;;;;;;;;;5083129;28;20215;-74
2022/04/30 11:21:50;;;;;;;9.67;8.67;;;;;;;;;;5085560;28;20558;-74
2022/04/30 11:24:25;;;;;;;11.43;10.30;;;;;;;;;;5088772;28;20260;-74
2022/04/30 11:26:53;;;;;;;10.63;9.53;;;;;;;;;;5086897;28;20178;-74
2022/04/30 11:29:18;;;;;;;9.90;8.97;;;;;;;;;;5089078;28;20233;-74
2022/04/30 11:31:43;;;;;;;11.60;10.33;;;;;;;;;;5079398;28;20274;-74
2022/04/30 11:34:08;;;;;;;11.57;10.37;;;;;;;;;;5084050;28;20289;-74
2022/04/30 11:36:37;;;;;;;11.60;10.40;;;;;;;;;;5092574;28;20221;-74
2022/04/30 11:39:02;;;;;;;11.00;9.90;;;;;;;;;;5085961;28;20207;-74
2022/04/30 11:41:28;;;;;;;13.67;12.07;;;;;;;;;;5085490;28;20253;-74
2022/04/30 11:43:56;;;;;;;10.73;9.67;;;;;;;;;;5089070;28;20171;-74
2022/04/30 11:46:21;;;;;;;12.90;10.80;;;;;;;;;;5094130;28;20183;-74
2022/04/30 11:48:47;;;;;;;13.37;11.97;;;;;;;;;;5087410;28;20173;-75
2022/04/30 11:51:12;;;;;;;14.00;11.57;;;;;;;;;;5083700;28;20191;-74
2022/04/30 11:53:38;;;;;;;12.40;11.20;;;;;;;;;;5102066;27;20190;-74
2022/04/30 11:56:04;;;;;;;13.40;12.03;;;;;;;;;;5084490;28;20197;-75
2022/04/30 11:58:39;;;;;;;11.43;9.50;;;;;;;;;;5090650;28;20186;-75
2022/04/30 12:01:04;;;;;;;9.93;8.93;;;;;;;;;;5087287;28;20210;-74
2022/04/30 12:03:29;;;;;;;12.07;10.87;;;;;;;;;;5080703;28;20187;-75
2022/04/30 12:05:56;;;;;;;13.20;11.20;;;;;;;;;;5082691;28;20248;-74
2022/04/30 12:08:26;;;;;;;14.13;11.10;;;;;;;;;;5089052;28;20181;-74
2022/04/30 12:10:55;;;;;;;13.40;12.00;;;;;;;;;;5080588;28;20188;-74
2022/04/30 12:13:24;;;;;;;11.97;10.77;;;;;;;;;;5087402;28;20186;-74
2022/04/30 12:16:01;;;;;;;11.90;10.70;;;;;;;;;;5085511;28;20332;-74
2022/04/30 12:27:02;;;;;;;13.23;11.93;;;;;;;;;;5085262;28;20290;-75
2022/04/30 12:29:28;;;;;;;14.37;10.90;;;;;;;;;;5085332;28;20236;-75
2022/04/30 12:31:53;;;;;;;13.87;12.00;;;;;;;;;;5092281;28;20178;-74
2022/04/30 12:34:19;;;;;;;14.27;12.87;;;;;;;;;;5086096;28;20253;-75
2022/04/30 12:36:55;;;;;;;16.07;14.37;;;;;;;;;;5078328;28;20500;-75
2022/04/30 12:39:23;;;;;;;15.07;13.30;;;;;;;;;;5080522;28;20187;-74
2022/04/30 12:41:48;;;;;;;16.07;14.37;;;;;;;;;;5083350;28;20274;-75
2022/04/30 12:44:13;;;;;;;14.73;13.20;;;;;;;;;;5089980;28;20178;-75
2022/04/30 12:46:46;;;;;;;15.20;11.93;;;;;;;;;;5094083;28;20200;-75
2022/04/30 12:49:12;;;;;;;12.73;11.23;;;;;;;;;;5079931;28;20223;-75
2022/04/30 12:51:38;;;;;;;14.40;12.90;;;;;;;;;;5081589;28;20189;-75
2022/04/30 12:54:04;;;;;;;15.67;14.07;;;;;;;;;;5080739;28;20179;-75
2022/04/30 12:56:30;;;;;;;15.40;13.83;;;;;;;;;;5077056;28;20184;-75
2022/04/30 12:58:56;;;;;;;12.73;11.23;;;;;;;;;;5081009;28;20187;-75
2022/04/30 13:01:21;;;;;;;16.47;13.57;;;;;;;;;;5086768;28;20214;-75
2022/04/30 13:03:46;;;;;;;16.03;13.63;;;;;;;;;;5078233;28;20183;-74
2022/04/30 13:06:12;;;;;;;15.77;13.43;;;;;;;;;;5078914;28;20198;-75
2022/04/30 13:14:06;;;;;;;13.83;12.27;;;;;;;;;;5084126;28;20222;-75
2022/04/30 13:16:31;;;;;;;14.87;13.27;;;;;;;;;;5082684;28;20225;-75
2022/04/30 13:18:57;;;;;;;15.50;13.27;;;;;;;;;;5086067;28;20201;-75
2022/04/30 13:21:23;;;;;;;16.30;14.60;;;;;;;;;;5086157;28;20264;-75
2022/04/30 13:23:48;;;;;;;16.33;12.90;;;;;;;;;;5087758;28;20203;-74
2022/04/30 13:26:13;;;;;;;16.00;13.77;;;;;;;;;;5082786;28;20168;-75
2022/04/30 13:28:39;;;;;;;15.43;13.07;;;;;;;;;;5084668;28;20222;-75
2022/04/30 13:31:04;;;;;;;14.90;12.47;;;;;;;;;;5080927;28;20207;-75
2022/04/30 13:33:29;;;;;;;17.43;15.03;;;;;;;;;;5082762;28;20199;-75
2022/04/30 13:35:54;;;;;;;16.07;14.40;;;;;;;;;;5084386;28;20295;-74
2022/04/30 13:38:20;;;;;;;15.57;12.40;;;;;;;;;;5083174;28;20180;-75
2022/04/30 13:40:45;;;;;;;16.70;14.90;;;;;;;;;;5078163;28;20212;-75
2022/04/30 13:43:11;;;;;;;17.37;15.07;;;;;;;;;;5078695;28;20178;-75
2022/04/30 13:45:36;;;;;;;18.40;15.37;;;;;;;;;;5078299;28;20220;-75
2022/04/30 13:48:02;;;;;;;16.20;13.07;;;;;;;;;;5074755;28;20176;-75
2022/04/30 13:50:27;;;;;;;15.10;13.50;;;;;;;;;;5077758;28;20259;-75
2022/04/30 13:52:53;;;;;;;17.20;15.23;;;;;;;;;;5081815;28;20190;-75
2022/04/30 13:55:18;;;;;;;17.73;13.67;;;;;;;;;;5082201;28;20199;-75
2022/04/30 13:57:43;;;;;;;17.30;15.47;;;;;;;;;;5088552;28;20190;-75
2022/04/30 14:00:15;;;;;;;18.60;15.90;;;;;;;;;;5077134;28;20262;-75
2022/04/30 14:02:40;;;;;;;21.37;13.30;;;;;;;;;;5083379;28;20451;-75
2022/04/30 14:05:06;;;;;;;19.60;14.40;;;;;;;;;;5085061;28;20175;-75
2022/04/30 14:07:31;;;;;;;15.50;13.17;;;;;;;;;;5085139;28;20183;-75
2022/04/30 14:09:56;;;;;;;13.53;11.27;;;;;;;;;;5076612;28;20214;-75
2022/04/30 14:12:21;;;;;;;15.57;12.77;;;;;;;;;;5075927;28;20174;-75
2022/04/30 14:14:55;;;;;;;17.30;12.13;;;;;;;;;;5093638;28;20272;-75
2022/04/30 14:20:05;;;;;;;16.90;14.23;;;;;;;;;;5079986;28;20309;-75
2022/04/30 14:22:30;;;;;;;13.77;12.30;;;;;;;;;;5085856;28;20265;-75
2022/04/30 14:24:55;;;;;;;16.60;12.13;;;;;;;;;;5083320;28;20172;-75
2022/04/30 14:27:21;;;;;;;16.17;13.30;;;;;;;;;;5082666;28;20178;-75
2022/04/30 14:29:47;;;;;;;13.50;12.07;;;;;;;;;;5081597;28;20537;-75
2022/04/30 14:32:12;;;;;;;18.17;14.90;;;;;;;;;;5090449;28;20177;-75
2022/04/30 14:34:39;;;;;;;13.70;11.63;;;;;;;;;;5078137;28;20181;-75
2022/04/30 14:37:04;;;;;;;12.50;11.07;;;;;;;;;;5084214;28;20180;-75
2022/04/30 14:39:29;;;;;;;14.73;13.10;;;;;;;;;;5081684;28;20186;-75
2022/04/30 14:41:55;;;;;;;14.03;11.90;;;;;;;;;;5087977;28;20206;-75
2022/04/30 14:44:20;;;;;;;14.87;12.40;;;;;;;;;;5086423;28;20182;-75
2022/04/30 14:46:45;;;;;;;14.47;12.90;;;;;;;;;;5084593;28;20197;-75
2022/04/30 14:49:10;;;;;;;16.10;14.23;;;;;;;;;;5090080;28;20223;-75
2022/04/30 14:51:35;;;;;;;13.00;11.30;;;;;;;;;;5085025;28;20196;-75
2022/04/30 14:54:01;;;;;;;16.67;14.27;;;;;;;;;;5083356;28;20276;-75
2022/04/30 14:56:26;;;;;;;14.60;12.83;;;;;;;;;;5076385;28;20174;-75
2022/04/30 14:58:51;;;;;;;15.60;13.33;;;;;;;;;;5081321;28;20188;-75
2022/04/30 15:01:16;;;;;;;13.63;12.20;;;;;;;;;;5088355;28;20260;-75
2022/04/30 15:03:43;;;;;;;14.40;12.93;;;;;;;;;;5087302;28;20184;-75
2022/04/30 15:06:08;;;;;;;13.97;12.47;;;;;;;;;;5082137;28;20175;-75
2022/04/30 15:08:34;;;;;;;13.23;11.80;;;;;;;;;;5083700;28;20179;-75